sensor_id;sensor_type;location;lat;lon;timestamp;P1;durP1;ratioP1;P2;durP2;ratioP2
57085;SDS011;42964;42.910;23.792;2024-01-15T00:03:12;32.28;;;19.35;;
57085;SDS011;42964;42.910;23.792;2024-01-15T00:08:11;38.45;;;19.95;;
57085;SDS011;42964;42.910;23.792;2024-01-15T00:13:10;43.97;;;24.70;;
57085;SDS011;42964;42.910;23.792;2024-01-15T00:18:09;46.53;;;28.50;;
57085;SDS011;42964;42.910;23.792;2024-01-15T00:23:08;58.92;;;37.58;;
57085;SDS011;42964;42.910;23.792;2024-01-15T00:28:07;67.45;;;42.38;;
57085;SDS011;42964;42.910;23.792;2024-01-15T00:33:06;54.75;;;32.75;;
57085;SDS011;42964;42.910;23.792;2024-01-15T00:38:05;50.83;;;30.25;;
57085;SDS011;42964;42.910;23.792;2024-01-15T00:43:04;40.30;;;23.75;;
57085;SDS011;42964;42.910;23.792;2024-01-15T00:48:06;32.30;;;18.70;;
57085;SDS011;42964;42.910;23.792;2024-01-15T00:53:05;30.10;;;17.35;;
57085;SDS011;42964;42.910;23.792;2024-01-15T00:58:04;25.50;;;14.75;;
57085;SDS011;42964;42.910;23.792;2024-01-15T01:03:03;114.63;;;47.63;;
57085;SDS011;42964;42.910;23.792;2024-01-15T01:08:02;46.42;;;25.77;;
57085;SDS011;42964;42.910;23.792;2024-01-15T01:13:01;34.28;;;17.52;;
57085;SDS011;42964;42.910;23.792;2024-01-15T01:18:00;36.00;;;18.35;;
57085;SDS011;42964;42.910;23.792;2024-01-15T01:22:59;31.17;;;17.75;;
57085;SDS011;42964;42.910;23.792;2024-01-15T01:27:58;34.10;;;19.67;;
57085;SDS011;42964;42.910;23.792;2024-01-15T01:32:57;78.72;;;37.28;;
57085;SDS011;42964;42.910;23.792;2024-01-15T01:37:56;61.35;;;33.08;;
57085;SDS011;42964;42.910;23.792;2024-01-15T01:42:55;44.53;;;24.80;;
57085;SDS011;42964;42.910;23.792;2024-01-15T01:47:54;39.22;;;21.23;;
57085;SDS011;42964;42.910;23.792;2024-01-15T01:52:53;33.05;;;19.90;;
57085;SDS011;42964;42.910;23.792;2024-01-15T01:57:52;26.30;;;17.38;;
57085;SDS011;42964;42.910;23.792;2024-01-15T02:02:52;34.10;;;19.35;;
57085;SDS011;42964;42.910;23.792;2024-01-15T02:07:51;38.88;;;24.38;;
57085;SDS011;42964;42.910;23.792;2024-01-15T02:12:50;43.20;;;26.05;;
57085;SDS011;42964;42.910;23.792;2024-01-15T02:17:58;50.10;;;25.95;;
57085;SDS011;42964;42.910;23.792;2024-01-15T02:23:11;37.60;;;22.05;;
57085;SDS011;42964;42.910;23.792;2024-01-15T02:28:15;34.60;;;19.63;;
57085;SDS011;42964;42.910;23.792;2024-01-15T02:33:15;32.13;;;18.98;;
57085;SDS011;42964;42.910;23.792;2024-01-15T02:38:14;27.40;;;18.25;;
57085;SDS011;42964;42.910;23.792;2024-01-15T02:43:13;28.83;;;17.70;;
57085;SDS011;42964;42.910;23.792;2024-01-15T02:48:12;26.10;;;16.77;;
57085;SDS011;42964;42.910;23.792;2024-01-15T02:53:11;41.97;;;22.85;;
57085;SDS011;42964;42.910;23.792;2024-01-15T02:58:10;42.35;;;22.92;;
57085;SDS011;42964;42.910;23.792;2024-01-15T03:03:09;42.05;;;23.25;;
57085;SDS011;42964;42.910;23.792;2024-01-15T03:08:08;43.20;;;23.55;;
57085;SDS011;42964;42.910;23.792;2024-01-15T03:13:07;45.45;;;23.95;;
57085;SDS011;42964;42.910;23.792;2024-01-15T03:18:08;44.22;;;25.85;;
57085;SDS011;42964;42.910;23.792;2024-01-15T03:23:07;37.92;;;22.27;;
57085;SDS011;42964;42.910;23.792;2024-01-15T03:28:06;41.10;;;24.25;;
57085;SDS011;42964;42.910;23.792;2024-01-15T03:33:05;31.08;;;18.23;;
57085;SDS011;42964;42.910;23.792;2024-01-15T03:38:05;29.83;;;16.70;;
57085;SDS011;42964;42.910;23.792;2024-01-15T03:43:04;35.40;;;17.02;;
57085;SDS011;42964;42.910;23.792;2024-01-15T03:48:03;38.28;;;21.13;;
57085;SDS011;42964;42.910;23.792;2024-01-15T03:58:01;33.35;;;20.77;;
57085;SDS011;42964;42.910;23.792;2024-01-15T04:03:00;36.58;;;21.65;;
57085;SDS011;42964;42.910;23.792;2024-01-15T04:07:59;38.13;;;22.17;;
57085;SDS011;42964;42.910;23.792;2024-01-15T04:12:58;45.72;;;27.02;;
57085;SDS011;42964;42.910;23.792;2024-01-15T04:17:58;54.33;;;30.23;;
57085;SDS011;42964;42.910;23.792;2024-01-15T04:22:57;50.70;;;29.95;;
57085;SDS011;42964;42.910;23.792;2024-01-15T04:27:56;65.57;;;36.35;;
57085;SDS011;42964;42.910;23.792;2024-01-15T04:32:55;123.30;;;63.83;;
57085;SDS011;42964;42.910;23.792;2024-01-15T04:37:54;102.93;;;55.10;;
57085;SDS011;42964;42.910;23.792;2024-01-15T04:42:53;89.00;;;50.10;;
57085;SDS011;42964;42.910;23.792;2024-01-15T04:47:53;79.78;;;41.33;;
57085;SDS011;42964;42.910;23.792;2024-01-15T04:52:52;65.30;;;34.95;;
57085;SDS011;42964;42.910;23.792;2024-01-15T04:57:51;72.10;;;42.05;;
57085;SDS011;42964;42.910;23.792;2024-01-15T05:02:49;118.65;;;58.10;;
57085;SDS011;42964;42.910;23.792;2024-01-15T05:07:48;97.97;;;48.30;;
57085;SDS011;42964;42.910;23.792;2024-01-15T05:12:47;65.38;;;35.50;;
57085;SDS011;42964;42.910;23.792;2024-01-15T05:17:46;65.43;;;35.47;;
57085;SDS011;42964;42.910;23.792;2024-01-15T05:22:45;56.08;;;31.73;;
57085;SDS011;42964;42.910;23.792;2024-01-15T05:27:44;67.80;;;37.70;;
57085;SDS011;42964;42.910;23.792;2024-01-15T05:32:43;80.78;;;44.88;;
57085;SDS011;42964;42.910;23.792;2024-01-15T05:37:43;96.78;;;52.22;;
57085;SDS011;42964;42.910;23.792;2024-01-15T05:42:43;114.88;;;63.67;;
57085;SDS011;42964;42.910;23.792;2024-01-15T05:47:42;106.07;;;59.25;;
57085;SDS011;42964;42.910;23.792;2024-01-15T05:52:42;83.32;;;47.05;;
57085;SDS011;42964;42.910;23.792;2024-01-15T05:57:41;90.65;;;50.28;;
57085;SDS011;42964;42.910;23.792;2024-01-15T06:02:40;103.05;;;54.28;;
57085;SDS011;42964;42.910;23.792;2024-01-15T06:07:39;111.55;;;62.20;;
57085;SDS011;42964;42.910;23.792;2024-01-15T06:12:38;103.47;;;54.65;;
57085;SDS011;42964;42.910;23.792;2024-01-15T06:17:37;142.73;;;78.30;;
57085;SDS011;42964;42.910;23.792;2024-01-15T06:22:37;147.45;;;78.15;;
57085;SDS011;42964;42.910;23.792;2024-01-15T06:27:37;188.15;;;104.00;;
57085;SDS011;42964;42.910;23.792;2024-01-15T06:32:36;172.00;;;94.90;;
57085;SDS011;42964;42.910;23.792;2024-01-15T06:37:35;160.10;;;86.60;;
57085;SDS011;42964;42.910;23.792;2024-01-15T06:42:34;143.27;;;80.75;;
57085;SDS011;42964;42.910;23.792;2024-01-15T06:47:33;136.40;;;73.95;;
57085;SDS011;42964;42.910;23.792;2024-01-15T06:52:32;134.68;;;66.07;;
57085;SDS011;42964;42.910;23.792;2024-01-15T06:57:31;113.57;;;62.30;;
57085;SDS011;42964;42.910;23.792;2024-01-15T07:02:30;106.00;;;58.45;;
57085;SDS011;42964;42.910;23.792;2024-01-15T07:07:29;82.78;;;49.78;;
57085;SDS011;42964;42.910;23.792;2024-01-15T07:12:28;77.47;;;42.42;;
57085;SDS011;42964;42.910;23.792;2024-01-15T07:17:27;81.63;;;48.05;;
57085;SDS011;42964;42.910;23.792;2024-01-15T07:22:26;103.22;;;55.97;;
57085;SDS011;42964;42.910;23.792;2024-01-15T07:27:25;99.43;;;57.58;;
57085;SDS011;42964;42.910;23.792;2024-01-15T07:32:24;68.70;;;40.80;;
57085;SDS011;42964;42.910;23.792;2024-01-15T07:37:23;73.05;;;39.58;;
57085;SDS011;42964;42.910;23.792;2024-01-15T07:42:22;67.03;;;39.53;;
57085;SDS011;42964;42.910;23.792;2024-01-15T07:47:21;78.80;;;43.55;;
57085;SDS011;42964;42.910;23.792;2024-01-15T07:52:20;66.15;;;42.50;;
57085;SDS011;42964;42.910;23.792;2024-01-15T07:57:19;60.35;;;37.90;;
57085;SDS011;42964;42.910;23.792;2024-01-15T08:02:18;32.40;;;23.40;;
57085;SDS011;42964;42.910;23.792;2024-01-15T08:07:17;20.15;;;12.90;;
57085;SDS011;42964;42.910;23.792;2024-01-15T08:17:15;35.65;;;21.95;;
57085;SDS011;42964;42.910;23.792;2024-01-15T08:22:15;11.10;;;6.65;;
57085;SDS011;42964;42.910;23.792;2024-01-15T08:27:14;9.60;;;6.65;;
57085;SDS011;42964;42.910;23.792;2024-01-15T08:32:13;7.70;;;6.00;;
57085;SDS011;42964;42.910;23.792;2024-01-15T08:37:13;9.30;;;6.53;;
57085;SDS011;42964;42.910;23.792;2024-01-15T08:42:13;11.45;;;5.05;;
57085;SDS011;42964;42.910;23.792;2024-01-15T08:47:12;6.30;;;4.57;;
57085;SDS011;42964;42.910;23.792;2024-01-15T08:52:11;8.82;;;5.20;;
57085;SDS011;42964;42.910;23.792;2024-01-15T08:57:10;9.57;;;6.15;;
57085;SDS011;42964;42.910;23.792;2024-01-15T09:02:10;6.15;;;5.30;;
57085;SDS011;42964;42.910;23.792;2024-01-15T09:07:09;8.40;;;5.80;;
57085;SDS011;42964;42.910;23.792;2024-01-15T09:12:08;9.23;;;5.75;;
57085;SDS011;42964;42.910;23.792;2024-01-15T09:17:07;7.85;;;6.25;;
57085;SDS011;42964;42.910;23.792;2024-01-15T09:22:06;6.93;;;5.20;;
57085;SDS011;42964;42.910;23.792;2024-01-15T09:27:05;8.20;;;5.95;;
57085;SDS011;42964;42.910;23.792;2024-01-15T09:32:04;8.25;;;5.78;;
57085;SDS011;42964;42.910;23.792;2024-01-15T09:37:04;7.13;;;5.97;;
57085;SDS011;42964;42.910;23.792;2024-01-15T09:42:03;9.27;;;6.13;;
57085;SDS011;42964;42.910;23.792;2024-01-15T09:47:03;19.80;;;7.15;;
57085;SDS011;42964;42.910;23.792;2024-01-15T09:52:04;7.30;;;5.00;;
57085;SDS011;42964;42.910;23.792;2024-01-15T09:57:04;11.35;;;5.53;;
57085;SDS011;42964;42.910;23.792;2024-01-15T10:02:02;8.68;;;5.80;;
57085;SDS011;42964;42.910;23.792;2024-01-15T10:07:02;10.60;;;6.70;;
57085;SDS011;42964;42.910;23.792;2024-01-15T10:12:03;12.65;;;8.48;;
57085;SDS011;42964;42.910;23.792;2024-01-15T10:17:15;10.50;;;7.88;;
57085;SDS011;42964;42.910;23.792;2024-01-15T10:22:14;9.88;;;7.05;;
57085;SDS011;42964;42.910;23.792;2024-01-15T10:27:14;20.00;;;12.73;;
57085;SDS011;42964;42.910;23.792;2024-01-15T10:32:14;8.02;;;5.40;;
57085;SDS011;42964;42.910;23.792;2024-01-15T10:37:13;14.65;;;5.88;;
57085;SDS011;42964;42.910;23.792;2024-01-15T10:42:12;7.15;;;5.47;;
57085;SDS011;42964;42.910;23.792;2024-01-15T10:47:11;7.07;;;6.25;;
57085;SDS011;42964;42.910;23.792;2024-01-15T10:52:10;12.10;;;9.88;;
57085;SDS011;42964;42.910;23.792;2024-01-15T10:57:10;6.35;;;5.30;;
57085;SDS011;42964;42.910;23.792;2024-01-15T11:02:09;5.45;;;4.60;;
57085;SDS011;42964;42.910;23.792;2024-01-15T11:07:09;5.63;;;5.05;;
57085;SDS011;42964;42.910;23.792;2024-01-15T11:12:11;5.65;;;5.15;;
57085;SDS011;42964;42.910;23.792;2024-01-15T11:17:12;5.85;;;4.97;;
57085;SDS011;42964;42.910;23.792;2024-01-15T11:27:39;6.55;;;5.95;;
57085;SDS011;42964;42.910;23.792;2024-01-15T11:32:50;5.78;;;5.28;;
57085;SDS011;42964;42.910;23.792;2024-01-15T11:42:51;6.75;;;5.43;;
57085;SDS011;42964;42.910;23.792;2024-01-15T11:48:10;5.93;;;5.32;;
57085;SDS011;42964;42.910;23.792;2024-01-15T11:58:38;11.63;;;8.27;;
57085;SDS011;42964;42.910;23.792;2024-01-15T12:03:37;8.20;;;6.35;;
57085;SDS011;42964;42.910;23.792;2024-01-15T12:08:36;5.35;;;4.85;;
57085;SDS011;42964;42.910;23.792;2024-01-15T12:13:35;5.45;;;4.85;;
57085;SDS011;42964;42.910;23.792;2024-01-15T12:18:34;5.78;;;5.15;;
57085;SDS011;42964;42.910;23.792;2024-01-15T12:23:33;6.43;;;4.82;;
57085;SDS011;42964;42.910;23.792;2024-01-15T12:28:32;9.90;;;6.53;;
57085;SDS011;42964;42.910;23.792;2024-01-15T12:33:31;16.83;;;11.27;;
57085;SDS011;42964;42.910;23.792;2024-01-15T12:38:31;7.13;;;5.57;;
57085;SDS011;42964;42.910;23.792;2024-01-15T12:43:30;5.78;;;5.18;;
57085;SDS011;42964;42.910;23.792;2024-01-15T12:48:29;5.45;;;4.93;;
57085;SDS011;42964;42.910;23.792;2024-01-15T12:53:28;6.95;;;5.80;;
57085;SDS011;42964;42.910;23.792;2024-01-15T12:58:27;6.28;;;4.97;;
57085;SDS011;42964;42.910;23.792;2024-01-15T13:03:26;7.03;;;5.97;;
57085;SDS011;42964;42.910;23.792;2024-01-15T13:08:25;7.97;;;6.28;;
57085;SDS011;42964;42.910;23.792;2024-01-15T13:13:26;6.47;;;5.75;;
57085;SDS011;42964;42.910;23.792;2024-01-15T13:18:26;7.13;;;6.20;;
57085;SDS011;42964;42.910;23.792;2024-01-15T13:23:25;10.40;;;5.53;;
57085;SDS011;42964;42.910;23.792;2024-01-15T13:28:23;7.00;;;6.07;;
57085;SDS011;42964;42.910;23.792;2024-01-15T13:33:22;9.18;;;5.70;;
57085;SDS011;42964;42.910;23.792;2024-01-15T13:38:22;6.40;;;5.57;;
57085;SDS011;42964;42.910;23.792;2024-01-15T13:43:21;10.82;;;6.72;;
57085;SDS011;42964;42.910;23.792;2024-01-15T13:48:19;6.90;;;5.93;;
57085;SDS011;42964;42.910;23.792;2024-01-15T13:53:18;8.48;;;6.40;;
57085;SDS011;42964;42.910;23.792;2024-01-15T13:58:17;6.70;;;5.55;;
57085;SDS011;42964;42.910;23.792;2024-01-15T14:08:16;10.20;;;5.75;;
57085;SDS011;42964;42.910;23.792;2024-01-15T14:13:15;10.77;;;6.95;;
57085;SDS011;42964;42.910;23.792;2024-01-15T14:18:14;15.73;;;8.52;;
57085;SDS011;42964;42.910;23.792;2024-01-15T14:23:13;7.65;;;6.38;;
57085;SDS011;42964;42.910;23.792;2024-01-15T14:28:12;8.55;;;6.03;;
57085;SDS011;42964;42.910;23.792;2024-01-15T14:33:11;10.80;;;5.47;;
57085;SDS011;42964;42.910;23.792;2024-01-15T14:38:10;7.85;;;6.85;;
57085;SDS011;42964;42.910;23.792;2024-01-15T14:43:09;7.80;;;6.47;;
57085;SDS011;42964;42.910;23.792;2024-01-15T14:48:09;12.48;;;7.20;;
57085;SDS011;42964;42.910;23.792;2024-01-15T14:53:08;9.85;;;6.95;;
57085;SDS011;42964;42.910;23.792;2024-01-15T14:58:07;13.63;;;7.53;;
57085;SDS011;42964;42.910;23.792;2024-01-15T15:03:06;12.52;;;7.47;;
57085;SDS011;42964;42.910;23.792;2024-01-15T15:08:05;9.75;;;7.18;;
57085;SDS011;42964;42.910;23.792;2024-01-15T15:13:07;8.27;;;6.43;;
57085;SDS011;42964;42.910;23.792;2024-01-15T15:18:06;10.70;;;6.68;;
57085;SDS011;42964;42.910;23.792;2024-01-15T15:23:05;8.95;;;7.05;;
57085;SDS011;42964;42.910;23.792;2024-01-15T15:28:06;10.65;;;7.40;;
57085;SDS011;42964;42.910;23.792;2024-01-15T15:33:07;10.23;;;7.28;;
57085;SDS011;42964;42.910;23.792;2024-01-15T15:38:06;12.32;;;7.75;;
57085;SDS011;42964;42.910;23.792;2024-01-15T15:43:05;10.50;;;8.35;;
57085;SDS011;42964;42.910;23.792;2024-01-15T15:53:03;12.02;;;9.10;;
57085;SDS011;42964;42.910;23.792;2024-01-15T15:58:03;11.63;;;7.80;;
57085;SDS011;42964;42.910;23.792;2024-01-15T16:03:02;10.45;;;8.30;;
57085;SDS011;42964;42.910;23.792;2024-01-15T16:08:01;10.45;;;8.20;;
57085;SDS011;42964;42.910;23.792;2024-01-15T16:13:01;9.48;;;7.72;;
57085;SDS011;42964;42.910;23.792;2024-01-15T16:18:00;8.70;;;7.63;;
57085;SDS011;42964;42.910;23.792;2024-01-15T16:22:59;12.38;;;7.72;;
57085;SDS011;42964;42.910;23.792;2024-01-15T16:27:58;12.07;;;7.90;;
57085;SDS011;42964;42.910;23.792;2024-01-15T16:32:57;12.63;;;7.63;;
57085;SDS011;42964;42.910;23.792;2024-01-15T16:37:59;10.25;;;8.10;;
57085;SDS011;42964;42.910;23.792;2024-01-15T16:42:58;7.32;;;6.63;;
57085;SDS011;42964;42.910;23.792;2024-01-15T16:47:57;8.68;;;7.45;;
57085;SDS011;42964;42.910;23.792;2024-01-15T16:52:56;12.57;;;7.88;;
57085;SDS011;42964;42.910;23.792;2024-01-15T16:57:55;10.95;;;7.55;;
57085;SDS011;42964;42.910;23.792;2024-01-15T17:02:55;11.43;;;8.10;;
57085;SDS011;42964;42.910;23.792;2024-01-15T17:07:54;11.10;;;8.65;;
57085;SDS011;42964;42.910;23.792;2024-01-15T17:12:53;10.60;;;7.97;;
57085;SDS011;42964;42.910;23.792;2024-01-15T17:17:52;9.65;;;7.80;;
57085;SDS011;42964;42.910;23.792;2024-01-15T17:22:51;8.80;;;7.60;;
57085;SDS011;42964;42.910;23.792;2024-01-15T17:27:50;10.27;;;7.72;;
57085;SDS011;42964;42.910;23.792;2024-01-15T17:32:49;10.00;;;8.13;;
57085;SDS011;42964;42.910;23.792;2024-01-15T17:37:48;10.57;;;8.10;;
57085;SDS011;42964;42.910;23.792;2024-01-15T17:42:48;7.85;;;6.55;;
57085;SDS011;42964;42.910;23.792;2024-01-15T17:47:48;8.95;;;7.25;;
57085;SDS011;42964;42.910;23.792;2024-01-15T17:52:47;10.20;;;7.05;;
57085;SDS011;42964;42.910;23.792;2024-01-15T17:57:46;10.60;;;8.13;;
57085;SDS011;42964;42.910;23.792;2024-01-15T18:02:46;10.05;;;7.82;;
57085;SDS011;42964;42.910;23.792;2024-01-15T18:07:45;9.15;;;6.43;;
57085;SDS011;42964;42.910;23.792;2024-01-15T18:12:44;7.85;;;6.78;;
57085;SDS011;42964;42.910;23.792;2024-01-15T18:17:46;7.63;;;6.22;;
57085;SDS011;42964;42.910;23.792;2024-01-15T18:22:49;10.13;;;6.72;;
57085;SDS011;42964;42.910;23.792;2024-01-15T18:27:48;7.18;;;6.18;;
57085;SDS011;42964;42.910;23.792;2024-01-15T18:32:47;7.22;;;6.30;;
57085;SDS011;42964;42.910;23.792;2024-01-15T18:37:46;8.25;;;6.97;;
57085;SDS011;42964;42.910;23.792;2024-01-15T18:42:45;9.13;;;6.80;;
57085;SDS011;42964;42.910;23.792;2024-01-15T18:47:43;10.57;;;6.70;;
57085;SDS011;42964;42.910;23.792;2024-01-15T18:52:43;8.77;;;7.00;;
57085;SDS011;42964;42.910;23.792;2024-01-15T18:57:43;7.68;;;6.80;;
57085;SDS011;42964;42.910;23.792;2024-01-15T19:02:42;8.70;;;7.28;;
57085;SDS011;42964;42.910;23.792;2024-01-15T19:07:41;8.52;;;7.18;;
57085;SDS011;42964;42.910;23.792;2024-01-15T19:12:44;9.32;;;6.60;;
57085;SDS011;42964;42.910;23.792;2024-01-15T19:17:43;9.48;;;6.85;;
57085;SDS011;42964;42.910;23.792;2024-01-15T19:22:43;10.43;;;7.03;;
57085;SDS011;42964;42.910;23.792;2024-01-15T19:27:42;7.68;;;6.82;;
57085;SDS011;42964;42.910;23.792;2024-01-15T19:32:43;9.07;;;7.20;;
57085;SDS011;42964;42.910;23.792;2024-01-15T19:37:42;9.15;;;6.93;;
57085;SDS011;42964;42.910;23.792;2024-01-15T19:42:41;9.23;;;6.97;;
57085;SDS011;42964;42.910;23.792;2024-01-15T19:47:40;8.13;;;6.20;;
57085;SDS011;42964;42.910;23.792;2024-01-15T19:52:39;8.77;;;7.10;;
57085;SDS011;42964;42.910;23.792;2024-01-15T19:57:39;7.00;;;6.00;;
57085;SDS011;42964;42.910;23.792;2024-01-15T20:02:38;8.27;;;5.82;;
57085;SDS011;42964;42.910;23.792;2024-01-15T20:07:37;9.10;;;6.22;;
57085;SDS011;42964;42.910;23.792;2024-01-15T20:12:36;9.63;;;7.05;;
57085;SDS011;42964;42.910;23.792;2024-01-15T20:17:39;8.63;;;6.93;;
57085;SDS011;42964;42.910;23.792;2024-01-15T20:22:38;9.60;;;6.70;;
57085;SDS011;42964;42.910;23.792;2024-01-15T20:32:36;8.18;;;6.38;;
57085;SDS011;42964;42.910;23.792;2024-01-15T20:37:35;8.88;;;6.55;;
57085;SDS011;42964;42.910;23.792;2024-01-15T20:42:34;8.45;;;6.22;;
57085;SDS011;42964;42.910;23.792;2024-01-15T20:47:34;8.80;;;6.93;;
57085;SDS011;42964;42.910;23.792;2024-01-15T20:52:32;7.65;;;5.93;;
57085;SDS011;42964;42.910;23.792;2024-01-15T20:57:32;7.95;;;5.78;;
57085;SDS011;42964;42.910;23.792;2024-01-15T21:02:32;7.70;;;6.22;;
57085;SDS011;42964;42.910;23.792;2024-01-15T21:07:31;7.45;;;5.47;;
57085;SDS011;42964;42.910;23.792;2024-01-15T21:12:30;6.07;;;5.47;;
57085;SDS011;42964;42.910;23.792;2024-01-15T21:17:29;8.65;;;5.35;;
57085;SDS011;42964;42.910;23.792;2024-01-15T21:22:28;9.52;;;5.45;;
57085;SDS011;42964;42.910;23.792;2024-01-15T21:32:26;6.85;;;6.00;;
57085;SDS011;42964;42.910;23.792;2024-01-15T21:37:25;7.25;;;5.35;;
57085;SDS011;42964;42.910;23.792;2024-01-15T21:42:25;7.47;;;5.47;;
57085;SDS011;42964;42.910;23.792;2024-01-15T21:47:24;7.10;;;4.82;;
57085;SDS011;42964;42.910;23.792;2024-01-15T21:52:24;7.78;;;4.55;;
57085;SDS011;42964;42.910;23.792;2024-01-15T21:57:23;6.13;;;5.05;;
57085;SDS011;42964;42.910;23.792;2024-01-15T22:02:22;8.43;;;6.05;;
57085;SDS011;42964;42.910;23.792;2024-01-15T22:07:21;8.75;;;5.63;;
57085;SDS011;42964;42.910;23.792;2024-01-15T22:12:23;6.40;;;4.93;;
57085;SDS011;42964;42.910;23.792;2024-01-15T22:17:22;5.90;;;4.70;;
57085;SDS011;42964;42.910;23.792;2024-01-15T22:22:21;6.97;;;5.32;;
57085;SDS011;42964;42.910;23.792;2024-01-15T22:27:20;5.60;;;4.90;;
57085;SDS011;42964;42.910;23.792;2024-01-15T22:32:19;6.25;;;4.90;;
57085;SDS011;42964;42.910;23.792;2024-01-15T22:37:18;6.85;;;4.85;;
57085;SDS011;42964;42.910;23.792;2024-01-15T22:42:17;7.07;;;4.90;;
57085;SDS011;42964;42.910;23.792;2024-01-15T22:47:17;5.80;;;4.47;;
57085;SDS011;42964;42.910;23.792;2024-01-15T22:52:16;5.05;;;4.55;;
57085;SDS011;42964;42.910;23.792;2024-01-15T22:57:15;4.60;;;4.18;;
57085;SDS011;42964;42.910;23.792;2024-01-15T23:02:14;5.43;;;4.40;;
57085;SDS011;42964;42.910;23.792;2024-01-15T23:07:14;5.32;;;4.72;;
57085;SDS011;42964;42.910;23.792;2024-01-15T23:17:12;5.57;;;5.00;;
57085;SDS011;42964;42.910;23.792;2024-01-15T23:22:11;5.50;;;5.00;;
57085;SDS011;42964;42.910;23.792;2024-01-15T23:27:10;6.38;;;4.60;;
57085;SDS011;42964;42.910;23.792;2024-01-15T23:37:09;6.15;;;5.15;;
57085;SDS011;42964;42.910;23.792;2024-01-15T23:42:08;4.88;;;4.30;;
57085;SDS011;42964;42.910;23.792;2024-01-15T23:47:07;5.97;;;5.38;;
57085;SDS011;42964;42.910;23.792;2024-01-15T23:52:06;5.50;;;4.80;;
